Terminal Aerodrome Forecast
Issued by NWS

Current Version | Previous Version | Graphics & Text | Print | Product List | Glossary On
Versions: 1 2 3 4 5 6 7 8 9 10 11 12 13 14 15 16 17 18 19
000
FTUS41 KRNK 230151 AAA
TAFLWB
TAF AMD
KLWB 230151Z 2302/2324 VRB04KT P6SM VCTS BKN050CB BKN200
     FM231400 27008G16KT P6SM VCSH BKN050 BKN100=

USA.gov is the U.S. government's official web portal to all federal, state and local government web resources and services.